Andrewsfield, United Kingdom
Current Conditions -  °F | °C
As of 12:19 PM on Wednesday 26 Nov 2014 (Local Time) from EGYM Reporting Station
Haze Haze  
Wind Chill: 43°   Ceiling: 500
Heat Index: 46°   Visibility: 1.2mi
Dew Point: 46°   Wind: 7mph
Humidity: 100%   Direction: 80°E
Pressure: 29.85"   Gusts: NA
Location:  52.88°N, 0.45°E
Report Text: EGYM 261219Z 08006KT 2000 BR BKN005 BKN022 08/08 Q1011 YLO2 TEMPO 1500 BR SCT002 AMB
Loading
Personal Weather Stations






























Interactive Weather Map New forecast layout! Learn more

10-Day Weather Forecast

Advertisements
Track Severe Weather on mobile